createdAt,value
2023-04-29T00:01:19.151Z,12.80
2023-04-29T00:03:47.491Z,13.90
2023-04-29T00:06:17.730Z,15.80
2023-04-29T00:08:45.887Z,17.43
2023-04-29T00:11:13.963Z,12.00
2023-04-29T00:13:42.047Z,12.60
2023-04-29T00:16:10.907Z,12.67
2023-04-29T00:18:38.955Z,12.50
2023-04-29T00:21:07.053Z,14.63
2023-04-29T00:23:36.445Z,17.60
2023-04-29T00:26:04.460Z,12.93
2023-04-29T00:28:32.461Z,13.47
2023-04-29T00:31:00.604Z,13.67
2023-04-29T00:33:28.656Z,12.97
2023-04-29T00:35:56.996Z,15.60
2023-04-29T00:38:26.288Z,13.47
2023-04-29T00:40:56.487Z,15.70
2023-04-29T00:43:24.494Z,15.43
2023-04-29T00:45:52.676Z,14.60
2023-04-29T00:48:20.757Z,15.50
2023-04-29T00:50:48.731Z,15.43
2023-04-29T00:53:17.307Z,15.07
2023-04-29T00:55:47.400Z,14.97
2023-04-29T00:58:17.560Z,15.43
2023-04-29T01:00:47.074Z,14.37
2023-04-29T01:03:15.703Z,12.73
2023-04-29T01:05:47.064Z,11.47
2023-04-29T01:08:29.877Z,11.53
2023-04-29T01:11:07.279Z,11.23
2023-04-29T01:13:44.385Z,17.10
2023-04-29T01:16:18.603Z,17.23
2023-04-29T01:18:55.139Z,17.13
2023-04-29T01:21:28.132Z,16.93
2023-04-29T01:23:57.471Z,18.03
2023-04-29T01:26:32.474Z,20.63
2023-04-29T01:29:24.864Z,16.67
2023-04-29T01:32:05.709Z,25.43
2023-04-29T01:34:41.573Z,27.03
2023-04-29T01:37:18.536Z,26.43
2023-04-29T01:39:59.406Z,27.40
2023-04-29T01:42:37.414Z,31.47
2023-04-29T01:45:13.468Z,31.20
2023-04-29T01:47:43.107Z,35.40
2023-04-29T01:50:11.942Z,32.77
2023-04-29T01:52:40.433Z,34.10
2023-04-29T01:55:11.016Z,36.03
2023-04-29T01:57:47.419Z,35.10
2023-04-29T02:00:35.673Z,35.80
2023-04-29T02:03:03.923Z,36.87
2023-04-29T02:05:40.128Z,36.53
2023-04-29T02:08:08.497Z,42.40
2023-04-29T02:10:42.993Z,42.43
2023-04-29T02:13:29.730Z,39.57
2023-04-29T02:15:57.719Z,45.27
2023-04-29T02:18:26.630Z,44.87
2023-04-29T02:21:01.651Z,50.80
2023-04-29T02:23:30.299Z,54.97
2023-04-29T02:25:59.664Z,48.77
2023-04-29T02:28:27.624Z,54.10
2023-04-29T02:30:55.673Z,52.27
2023-04-29T02:33:23.674Z,54.40
2023-04-29T02:35:51.664Z,56.33
2023-04-29T02:38:19.625Z,65.00
2023-04-29T02:40:48.169Z,59.67
2023-04-29T02:43:17.768Z,57.40
2023-04-29T02:45:46.653Z,58.37
2023-04-29T02:48:14.807Z,61.97
2023-04-29T02:50:43.098Z,55.70
2023-04-29T02:53:11.149Z,57.30
2023-04-29T02:55:39.199Z,56.33
2023-04-29T02:58:10.607Z,58.97
2023-04-29T03:00:42.029Z,67.03
2023-04-29T03:03:10.716Z,66.80
2023-04-29T03:05:38.849Z,63.10
2023-04-29T03:08:07.451Z,66.03
2023-04-29T03:10:35.776Z,72.83
2023-04-29T03:13:04.253Z,71.20
2023-04-29T03:15:33.936Z,63.03
2023-04-29T03:18:04.877Z,72.67
2023-04-29T03:20:35.012Z,72.57
2023-04-29T03:23:05.178Z,79.40
2023-04-29T03:25:33.259Z,76.53
2023-04-29T03:28:01.207Z,77.30
2023-04-29T03:30:29.213Z,76.80
2023-04-29T03:32:59.456Z,78.07
2023-04-29T03:35:30.486Z,81.03
2023-04-29T03:38:25.910Z,80.43
2023-04-29T03:40:55.123Z,87.17
2023-04-29T03:43:23.155Z,82.80
2023-04-29T03:45:51.476Z,86.23
2023-04-29T03:48:22.636Z,82.57
2023-04-29T03:50:52.014Z,88.07
2023-04-29T03:53:20.806Z,82.07
2023-04-29T03:55:49.484Z,85.97
2023-04-29T03:58:18.009Z,84.80
2023-04-29T04:00:46.946Z,81.50
2023-04-29T04:03:20.772Z,76.80
2023-04-29T04:05:49.215Z,70.07
2023-04-29T04:08:19.550Z,72.57
2023-04-29T04:10:52.344Z,74.03
2023-04-29T04:13:43.415Z,75.83
2023-04-29T04:16:12.152Z,75.17
2023-04-29T04:18:40.467Z,76.97
2023-04-29T04:21:09.173Z,74.60
2023-04-29T04:23:41.316Z,74.73
2023-04-29T04:26:11.678Z,72.20
2023-04-29T04:28:57.679Z,64.63
2023-04-29T04:31:37.278Z,61.10
2023-04-29T04:34:05.265Z,60.83
2023-04-29T04:36:34.278Z,56.13
2023-04-29T04:39:03.709Z,69.60
2023-04-29T04:41:33.437Z,56.37
2023-04-29T04:44:02.979Z,61.27
2023-04-29T04:46:42.464Z,62.00
2023-04-29T04:49:15.572Z,62.47
2023-04-29T04:51:50.417Z,63.03
2023-04-29T04:54:19.777Z,62.53
2023-04-29T04:56:52.094Z,66.60
2023-04-29T04:59:20.149Z,63.83
2023-04-29T05:01:48.232Z,59.20
2023-04-29T05:04:16.684Z,57.97
2023-04-29T05:06:44.780Z,58.70
2023-04-29T05:09:12.784Z,66.13
2023-04-29T05:11:42.237Z,48.80
2023-04-29T05:14:13.765Z,57.20
2023-04-29T05:16:43.652Z,51.90
2023-04-29T05:19:11.683Z,47.43
2023-04-29T05:21:41.449Z,48.43
2023-04-29T05:24:11.582Z,47.70
2023-04-29T05:26:39.666Z,44.37
2023-04-29T05:29:09.677Z,42.87
2023-04-29T05:31:47.511Z,41.70
2023-04-29T05:34:15.754Z,43.70
2023-04-29T05:36:43.791Z,42.00
2023-04-29T05:39:11.880Z,41.13
2023-04-29T05:41:39.848Z,43.00
2023-04-29T05:44:22.718Z,37.93
2023-04-29T05:46:51.751Z,41.97
2023-04-29T05:49:20.513Z,41.93
2023-04-29T05:51:48.503Z,37.33
2023-04-29T05:54:16.604Z,35.10
2023-04-29T05:56:46.171Z,34.47
2023-04-29T05:59:14.932Z,33.50
2023-04-29T06:01:48.596Z,31.97
2023-04-29T06:04:16.830Z,34.27
2023-04-29T06:07:05.043Z,29.20
2023-04-29T06:09:57.790Z,32.87
2023-04-29T06:12:27.270Z,30.03
2023-04-29T06:14:55.379Z,28.80
2023-04-29T06:17:24.844Z,31.23
2023-04-29T06:19:53.816Z,31.03
2023-04-29T06:22:22.352Z,27.17
2023-04-29T06:24:52.837Z,29.10
2023-04-29T06:27:42.974Z,31.77
2023-04-29T06:30:11.938Z,29.10
2023-04-29T06:32:41.990Z,28.97
2023-04-29T06:35:10.523Z,30.33
2023-04-29T06:38:01.473Z,32.07
2023-04-29T06:40:49.682Z,28.23
2023-04-29T06:43:36.575Z,31.03
2023-04-29T06:46:23.337Z,29.83
2023-04-29T06:49:04.222Z,28.10
2023-04-29T06:51:33.748Z,30.07
2023-04-29T06:54:01.857Z,30.57
2023-04-29T06:56:29.842Z,31.73
2023-04-29T06:58:57.945Z,29.03
2023-04-29T07:01:26.020Z,29.57
2023-04-29T07:03:54.157Z,31.33
2023-04-29T07:06:23.727Z,28.43
2023-04-29T07:08:54.870Z,27.07
2023-04-29T07:11:26.868Z,30.50
2023-04-29T07:13:54.892Z,28.63
2023-04-29T07:16:26.366Z,30.63
2023-04-29T07:18:54.804Z,28.70
2023-04-29T07:21:24.196Z,26.77
2023-04-29T07:23:52.248Z,29.27
2023-04-29T07:26:21.384Z,32.13
2023-04-29T07:28:50.349Z,29.33
2023-04-29T07:31:18.384Z,27.67
2023-04-29T07:33:47.315Z,29.63
2023-04-29T07:36:15.380Z,33.50
2023-04-29T07:38:44.694Z,29.93
2023-04-29T07:41:12.703Z,32.03
2023-04-29T07:43:42.379Z,28.83
2023-04-29T07:46:11.778Z,31.50
2023-04-29T07:48:40.320Z,31.60
2023-04-29T07:51:13.476Z,28.77
2023-04-29T07:53:45.081Z,30.80
2023-04-29T07:56:13.156Z,32.43
2023-04-29T07:58:41.997Z,36.17
2023-04-29T08:01:12.142Z,30.73
2023-04-29T08:03:42.067Z,28.37
2023-04-29T08:06:11.560Z,32.43
2023-04-29T08:08:39.505Z,28.90
2023-04-29T08:11:08.813Z,36.00
2023-04-29T08:13:38.833Z,30.20
2023-04-29T08:16:09.503Z,45.60
2023-04-29T08:18:37.647Z,37.03
2023-04-29T08:21:05.760Z,29.23
2023-04-29T08:23:34.155Z,29.80
2023-04-29T08:26:03.142Z,28.47
2023-04-29T08:28:32.538Z,26.37
2023-04-29T08:31:00.474Z,32.07
2023-04-29T08:33:28.619Z,30.30
2023-04-29T08:36:03.431Z,32.83
2023-04-29T08:38:31.984Z,31.93
2023-04-29T08:41:00.024Z,30.57
2023-04-29T08:43:28.282Z,28.27
2023-04-29T08:45:59.514Z,35.33
2023-04-29T08:48:28.877Z,28.47
2023-04-29T08:50:58.390Z,26.77
2023-04-29T08:53:26.720Z,25.77
2023-04-29T08:55:56.564Z,25.30
2023-04-29T08:58:26.500Z,26.53
2023-04-29T09:00:54.886Z,25.43
2023-04-29T09:03:31.169Z,25.50
2023-04-29T09:06:01.985Z,28.30
2023-04-29T09:08:30.941Z,24.07
2023-04-29T09:11:00.374Z,24.33
2023-04-29T09:13:29.574Z,23.83
2023-04-29T09:15:58.167Z,23.47
2023-04-29T09:18:47.737Z,27.90
2023-04-29T09:21:19.659Z,29.07
2023-04-29T09:23:51.171Z,26.27
2023-04-29T09:26:19.356Z,23.50
2023-04-29T09:28:47.867Z,27.83
2023-04-29T09:31:16.074Z,23.60
2023-04-29T09:33:55.559Z,24.87
2023-04-29T09:36:44.953Z,28.47
2023-04-29T09:39:15.768Z,30.53
2023-04-29T09:41:58.973Z,33.63
2023-04-29T09:44:29.953Z,32.17
2023-04-29T09:47:02.654Z,37.23
2023-04-29T09:49:35.419Z,43.67
2023-04-29T09:52:05.050Z,47.03
2023-04-29T09:54:36.284Z,38.57
2023-04-29T09:57:06.842Z,34.37
2023-04-29T09:59:35.996Z,37.10
2023-04-29T10:02:09.303Z,31.27
2023-04-29T10:04:42.733Z,98.67
2023-04-29T10:07:14.904Z,47.40
2023-04-29T10:09:43.193Z,40.33
2023-04-29T10:12:11.631Z,51.77
2023-04-29T10:14:44.736Z,48.37
2023-04-29T10:17:17.355Z,52.07
2023-04-29T10:19:52.272Z,45.73
2023-04-29T10:22:27.922Z,43.23
2023-04-29T10:24:59.168Z,38.50
2023-04-29T10:27:28.463Z,37.47
2023-04-29T10:29:57.769Z,34.40
2023-04-29T10:32:30.560Z,39.40
2023-04-29T10:35:05.889Z,40.97
2023-04-29T10:37:34.247Z,39.37
2023-04-29T10:40:11.881Z,38.00
2023-04-29T10:42:47.050Z,40.00
2023-04-29T10:45:23.131Z,42.40
2023-04-29T10:48:10.863Z,42.63
2023-04-29T10:51:02.594Z,48.83
2023-04-29T10:53:31.080Z,50.07
2023-04-29T10:56:04.404Z,53.10
2023-04-29T10:58:43.689Z,60.23
2023-04-29T11:01:13.721Z,72.70
2023-04-29T11:03:50.713Z,77.23
2023-04-29T11:06:20.354Z,78.20
2023-04-29T11:08:48.437Z,81.67
2023-04-29T11:11:16.590Z,81.87
2023-04-29T11:13:47.945Z,86.47
2023-04-29T11:16:16.152Z,84.17
2023-04-29T11:19:06.823Z,79.87
2023-04-29T11:21:37.807Z,106.67
2023-04-29T11:24:07.390Z,100.60
2023-04-29T11:26:36.344Z,102.87
2023-04-29T11:29:05.826Z,99.60
2023-04-29T11:31:34.382Z,91.20
2023-04-29T11:34:02.905Z,96.53
2023-04-29T11:36:33.106Z,95.73
2023-04-29T11:39:04.592Z,98.33
2023-04-29T11:41:33.365Z,94.20
2023-04-29T11:44:03.485Z,93.83
2023-04-29T11:46:32.676Z,84.10
2023-04-29T11:49:01.431Z,82.50
2023-04-29T11:51:29.854Z,74.93
2023-04-29T11:53:58.818Z,70.53
2023-04-29T11:56:28.166Z,80.47
2023-04-29T11:58:57.280Z,83.33
2023-04-29T12:01:27.079Z,79.60
2023-04-29T12:04:01.089Z,78.43
2023-04-29T12:06:31.660Z,81.53
2023-04-29T12:09:01.755Z,73.33
2023-04-29T12:11:31.619Z,71.17
2023-04-29T12:14:02.464Z,83.63
2023-04-29T12:16:31.451Z,83.10
2023-04-29T12:19:00.926Z,83.03
2023-04-29T12:21:29.151Z,71.50
2023-04-29T12:24:01.443Z,74.27
2023-04-29T12:26:31.473Z,64.20
2023-04-29T12:29:00.097Z,53.97
2023-04-29T12:31:34.721Z,58.97
2023-04-29T12:34:06.811Z,56.37
2023-04-29T12:36:37.643Z,54.90
2023-04-29T12:39:09.530Z,57.37
2023-04-29T12:41:42.545Z,53.07
2023-04-29T12:44:11.769Z,50.17
2023-04-29T12:46:41.197Z,44.60
2023-04-29T12:49:09.476Z,46.50
2023-04-29T12:51:37.704Z,53.70
2023-04-29T12:54:07.299Z,49.80
2023-04-29T12:56:35.474Z,47.77
2023-04-29T12:59:08.569Z,49.40
2023-04-29T13:01:36.626Z,56.43
2023-04-29T13:04:06.512Z,49.00
2023-04-29T13:06:34.893Z,50.70
2023-04-29T13:09:03.194Z,45.20
2023-04-29T13:11:34.419Z,47.60
2023-04-29T13:14:02.777Z,44.30
2023-04-29T13:16:32.348Z,49.13
2023-04-29T13:19:12.993Z,47.77
2023-04-29T13:21:48.690Z,46.90
2023-04-29T13:24:18.324Z,50.13
2023-04-29T13:26:47.131Z,47.27
2023-04-29T13:29:15.069Z,44.20
2023-04-29T13:31:45.038Z,42.80
2023-04-29T13:34:13.129Z,43.20
2023-04-29T13:36:41.120Z,45.70
2023-04-29T13:39:10.436Z,43.40
2023-04-29T13:41:41.453Z,44.30
2023-04-29T13:44:23.922Z,40.83
2023-04-29T13:46:58.399Z,40.80
2023-04-29T13:54:57.618Z,38.57
2023-04-29T13:58:00.485Z,47.77
2023-04-29T14:00:25.093Z,46.27
2023-04-29T14:05:27.007Z,37.57
2023-04-29T14:07:55.156Z,43.07
2023-04-29T14:10:23.338Z,35.47
2023-04-29T14:12:51.321Z,35.53
2023-04-29T14:15:19.366Z,40.43
2023-04-29T14:17:47.412Z,38.90
2023-04-29T14:20:17.029Z,45.10
2023-04-29T14:22:45.279Z,44.60
2023-04-29T14:25:13.608Z,42.00
2023-04-29T14:27:41.979Z,34.13
2023-04-29T14:30:10.840Z,37.60
2023-04-29T14:32:38.842Z,38.07
2023-04-29T14:35:07.869Z,38.77
2023-04-29T14:37:37.219Z,40.33
2023-04-29T14:40:06.389Z,33.80
2023-04-29T14:42:34.357Z,34.80
2023-04-29T14:45:02.338Z,33.70
2023-04-29T14:47:30.382Z,32.37
2023-04-29T14:49:58.377Z,27.10
2023-04-29T14:52:26.415Z,29.00
2023-04-29T14:54:56.386Z,61.13
2023-04-29T14:57:24.567Z,31.60
2023-04-29T14:59:52.516Z,38.57
2023-04-29T15:02:20.551Z,32.80
2023-04-29T15:04:49.143Z,30.63
2023-04-29T15:07:17.324Z,37.43
2023-04-29T15:09:45.809Z,31.43
2023-04-29T15:12:16.817Z,32.53
2023-04-29T15:14:44.824Z,29.73
2023-04-29T15:17:12.796Z,99.67
2023-04-29T15:19:40.794Z,32.37
2023-04-29T15:22:08.732Z,35.03
2023-04-29T15:24:36.734Z,32.17
2023-04-29T15:27:05.112Z,33.10
2023-04-29T15:29:37.180Z,29.13
2023-04-29T15:32:05.378Z,28.57
2023-04-29T15:34:33.362Z,28.87
2023-04-29T15:37:01.343Z,32.47
2023-04-29T15:39:29.337Z,36.87
2023-04-29T15:41:58.792Z,28.07
2023-04-29T15:44:26.785Z,35.47
2023-04-29T15:46:56.173Z,30.87
2023-04-29T15:49:25.546Z,55.70
2023-04-29T15:51:53.603Z,31.50
2023-04-29T15:54:21.773Z,32.97
2023-04-29T15:56:50.801Z,68.27
2023-04-29T15:59:18.809Z,160.30
2023-04-29T16:01:46.906Z,43.10
2023-04-29T16:04:16.511Z,51.70
2023-04-29T16:06:45.329Z,36.47
2023-04-29T16:09:13.580Z,33.87
2023-04-29T16:11:42.014Z,26.93
2023-04-29T16:14:10.067Z,37.20
2023-04-29T16:16:38.170Z,34.07
2023-04-29T16:19:06.165Z,36.40
2023-04-29T16:21:35.592Z,32.07
2023-04-29T16:24:03.680Z,33.37
2023-04-29T16:26:31.732Z,29.23
2023-04-29T16:28:59.831Z,37.07
2023-04-29T16:31:28.315Z,33.27
2023-04-29T16:33:57.063Z,37.40
2023-04-29T16:36:26.282Z,38.63
2023-04-29T16:38:55.729Z,31.70
2023-04-29T16:41:24.124Z,33.60
2023-04-29T16:43:52.165Z,29.77
2023-04-29T16:46:20.448Z,29.13
2023-04-29T16:48:51.223Z,36.93
2023-04-29T16:51:19.311Z,35.93
2023-04-29T16:53:47.274Z,34.50
2023-04-29T16:56:16.688Z,39.23
2023-04-29T16:58:44.668Z,37.63
2023-04-29T17:01:12.844Z,32.53
2023-04-29T17:03:41.139Z,38.23
2023-04-29T17:06:09.272Z,36.10
2023-04-29T17:08:37.375Z,37.43
2023-04-29T17:11:06.303Z,32.17
2023-04-29T17:13:35.830Z,37.33
2023-04-29T17:16:04.086Z,35.10
2023-04-29T17:18:32.136Z,37.00
2023-04-29T17:21:00.857Z,29.00
2023-04-29T17:23:30.520Z,29.17
2023-04-29T17:25:58.587Z,32.87
2023-04-29T17:28:26.813Z,31.47
2023-04-29T17:30:59.872Z,26.83
2023-04-29T17:33:33.810Z,26.73
2023-04-29T17:36:02.215Z,29.93
2023-04-29T17:38:30.390Z,33.10
2023-04-29T17:40:58.386Z,73.77
2023-04-29T17:43:27.210Z,74.33
2023-04-29T17:45:59.433Z,27.40
2023-04-29T17:48:27.522Z,30.00
2023-04-29T17:50:55.798Z,30.60
2023-04-29T17:53:23.918Z,23.97
2023-04-29T17:55:52.863Z,25.60
2023-04-29T17:58:21.413Z,24.50
2023-04-29T18:00:49.520Z,196.20
2023-04-29T18:03:19.031Z,32.57
2023-04-29T18:05:47.447Z,25.70
2023-04-29T18:08:15.568Z,37.60
2023-04-29T18:10:43.653Z,31.77
2023-04-29T18:13:11.636Z,38.37
2023-04-29T18:15:39.735Z,31.83
2023-04-29T18:18:08.048Z,35.73
2023-04-29T18:20:37.532Z,32.53
2023-04-29T18:23:05.722Z,32.97
2023-04-29T18:25:37.284Z,33.10
2023-04-29T18:28:19.443Z,36.10
2023-04-29T18:30:52.137Z,34.87
2023-04-29T18:33:20.271Z,34.53
2023-04-29T18:35:50.054Z,33.23
2023-04-29T18:38:18.210Z,33.67
2023-04-29T18:40:46.499Z,31.13
2023-04-29T18:43:17.894Z,33.33
2023-04-29T18:45:46.243Z,33.43
2023-04-29T18:48:15.001Z,36.20
2023-04-29T18:50:43.571Z,43.97
2023-04-29T18:53:13.441Z,37.37
2023-04-29T18:55:41.457Z,36.27
2023-04-29T18:58:10.234Z,38.07
2023-04-29T19:00:38.330Z,44.63
2023-04-29T19:03:06.692Z,37.77
2023-04-29T19:05:34.732Z,41.77
2023-04-29T19:08:02.750Z,38.53
2023-04-29T19:10:32.272Z,38.37
2023-04-29T19:13:00.237Z,41.97
2023-04-29T19:15:28.482Z,41.03
2023-04-29T19:17:56.665Z,38.37
2023-04-29T19:20:24.932Z,35.33
2023-04-29T19:22:53.066Z,46.30
2023-04-29T19:25:21.782Z,39.07
2023-04-29T19:27:51.465Z,38.73
2023-04-29T19:30:20.134Z,44.43
2023-04-29T19:32:48.774Z,47.13
2023-04-29T19:35:16.929Z,41.60
2023-04-29T19:37:45.238Z,44.07
2023-04-29T19:40:13.569Z,39.20
2023-04-29T19:42:41.634Z,42.90
2023-04-29T19:45:12.600Z,40.33
2023-04-29T19:47:41.015Z,41.13
2023-04-29T19:50:09.674Z,37.60
2023-04-29T19:52:37.783Z,45.70
2023-04-29T19:55:08.770Z,47.17
2023-04-29T19:57:38.182Z,41.60
2023-04-29T20:00:08.542Z,40.27
2023-04-29T20:02:38.270Z,44.30
2023-04-29T20:05:06.869Z,42.87
2023-04-29T20:07:34.883Z,40.20
2023-04-29T20:10:02.850Z,39.07
2023-04-29T20:12:31.310Z,38.00
2023-04-29T20:14:59.371Z,40.07
2023-04-29T20:17:28.251Z,36.53
2023-04-29T20:19:57.618Z,36.10
2023-04-29T20:22:25.629Z,39.10
2023-04-29T20:24:53.606Z,35.73
2023-04-29T20:27:21.659Z,35.00
2023-04-29T20:29:49.639Z,42.40
2023-04-29T20:32:17.843Z,40.50
2023-04-29T20:34:45.906Z,36.37
2023-04-29T20:37:15.274Z,39.67
2023-04-29T20:39:43.257Z,38.97
2023-04-29T20:42:11.224Z,37.87
2023-04-29T20:44:39.670Z,38.13
2023-04-29T20:47:07.665Z,33.00
2023-04-29T20:49:35.797Z,33.80
2023-04-29T20:52:06.184Z,39.10
2023-04-29T20:54:35.985Z,34.57
2023-04-29T20:57:05.506Z,36.27
2023-04-29T20:59:33.976Z,36.03
2023-04-29T21:02:02.008Z,37.70
2023-04-29T21:04:30.109Z,38.37
2023-04-29T21:06:58.161Z,38.67
2023-04-29T21:09:26.167Z,39.43
2023-04-29T21:11:57.895Z,32.97
2023-04-29T21:14:26.147Z,40.70
2023-04-29T21:16:54.287Z,41.80
2023-04-29T21:19:22.280Z,40.30
2023-04-29T21:21:50.475Z,42.70
2023-04-29T21:24:18.567Z,39.87
2023-04-29T21:26:47.296Z,41.83
2023-04-29T21:29:16.659Z,42.40
2023-04-29T21:31:44.728Z,43.53
2023-04-29T21:34:12.719Z,46.73
2023-04-29T21:36:40.709Z,38.30
2023-04-29T21:39:09.776Z,40.90
2023-04-29T21:41:39.715Z,43.43
2023-04-29T21:44:08.472Z,39.90
2023-04-29T21:46:38.556Z,40.23
2023-04-29T21:49:07.419Z,45.20
2023-04-29T21:51:36.054Z,47.27
2023-04-29T21:54:08.142Z,38.87
2023-04-29T21:56:36.442Z,39.77
2023-04-29T21:59:04.463Z,174.97
2023-04-29T22:01:48.528Z,83.47
2023-04-29T22:04:24.583Z,43.73
2023-04-29T22:06:52.573Z,43.60
2023-04-29T22:09:21.012Z,46.77
2023-04-29T22:11:49.147Z,48.50
2023-04-29T22:14:17.130Z,38.43
2023-04-29T22:16:45.191Z,43.20
2023-04-29T22:19:13.200Z,52.13
2023-04-29T22:21:43.026Z,48.10
2023-04-29T22:24:11.104Z,45.33
2023-04-29T22:26:39.069Z,46.73
2023-04-29T22:29:07.073Z,46.40
2023-04-29T22:31:35.117Z,45.77
2023-04-29T22:34:03.139Z,46.57
2023-04-29T22:36:31.477Z,42.10
2023-04-29T22:39:01.218Z,46.53
2023-04-29T22:41:29.270Z,42.13
2023-04-29T22:43:57.951Z,48.60
2023-04-29T22:46:26.328Z,46.53
2023-04-29T22:48:54.519Z,41.90
2023-04-29T22:51:22.519Z,42.50
2023-04-29T22:53:50.524Z,42.40
2023-04-29T22:56:19.940Z,40.30
2023-04-29T22:58:47.882Z,39.80
2023-04-29T23:01:15.896Z,41.10
2023-04-29T23:03:43.856Z,48.27
2023-04-29T23:06:11.869Z,43.43
2023-04-29T23:08:39.852Z,42.63
2023-04-29T23:11:07.814Z,44.00
2023-04-29T23:13:37.176Z,41.20
2023-04-29T23:16:05.529Z,43.80
2023-04-29T23:18:33.592Z,39.60
2023-04-29T23:21:01.659Z,41.93
2023-04-29T23:23:29.655Z,39.93
2023-04-29T23:25:57.695Z,40.63
2023-04-29T23:28:25.864Z,38.03
2023-04-29T23:30:55.437Z,42.40
2023-04-29T23:33:23.482Z,39.00
2023-04-29T23:35:51.539Z,43.83
2023-04-29T23:38:19.910Z,36.60
2023-04-29T23:40:48.202Z,40.87
2023-04-29T23:43:16.192Z,40.60
2023-04-29T23:45:45.623Z,36.60
2023-04-29T23:48:16.066Z,38.03
2023-04-29T23:50:44.101Z,39.87
2023-04-29T23:53:12.120Z,36.00
2023-04-29T23:55:40.147Z,36.87
2023-04-29T23:58:08.588Z,40.23
